Time;durP1;ratioP1;P1;durP2;ratioP2;P2;SDS_P1;SDS_P2;PMS_P1;PMS_P2;Temp;Humidity;BMP_temperature;BMP_pressure;BME280_temperature;BME280_humidity;BME280_pressure;Samples;Min_cycle;Max_cycle;Signal;HPM_P1;HPM_P2
2023/04/26 00:02:11;;;;;;;11.32;3.58;;;;;;;;;;5032469;28;20456;-76
2023/04/26 00:04:37;;;;;;;8.68;3.33;;;;;;;;;;5026561;28;20406;-75
2023/04/26 00:07:03;;;;;;;12.63;3.08;;;;;;;;;;5031337;28;20045;-76
2023/04/26 00:09:30;;;;;;;9.20;3.25;;;;;;;;;;5032450;28;20045;-75
2023/04/26 00:11:56;;;;;;;9.05;3.30;;;;;;;;;;5029185;28;20103;-76
2023/04/26 00:14:22;;;;;;;10.38;3.40;;;;;;;;;;5032555;28;20042;-76
2023/04/26 00:16:48;;;;;;;7.63;3.53;;;;;;;;;;5030855;28;20056;-76
2023/04/26 00:19:14;;;;;;;9.18;3.45;;;;;;;;;;5001998;28;20046;-75
2023/04/26 00:21:40;;;;;;;10.88;3.30;;;;;;;;;;5035917;28;20534;-76
2023/04/26 00:24:07;;;;;;;9.85;3.17;;;;;;;;;;5036179;28;20047;-76
2023/04/26 00:26:33;;;;;;;12.60;3.05;;;;;;;;;;5028689;28;20091;-76
2023/04/26 00:29:00;;;;;;;9.25;3.15;;;;;;;;;;5035591;28;20041;-76
2023/04/26 00:31:26;;;;;;;15.57;5.20;;;;;;;;;;5035432;28;20042;-76
2023/04/26 00:33:52;;;;;;;11.20;3.17;;;;;;;;;;5031570;28;20104;-76
2023/04/26 00:36:18;;;;;;;8.30;2.90;;;;;;;;;;5034296;28;20405;-76
2023/04/26 00:38:47;;;;;;;10.07;3.67;;;;;;;;;;5035880;28;20116;-76
2023/04/26 00:41:13;;;;;;;12.75;3.53;;;;;;;;;;5034618;28;20041;-76
2023/04/26 00:43:39;;;;;;;10.43;3.22;;;;;;;;;;5034267;28;20072;-76
2023/04/26 00:46:07;;;;;;;10.48;3.20;;;;;;;;;;5035402;28;20045;-76
2023/04/26 00:48:34;;;;;;;10.15;2.80;;;;;;;;;;5035691;28;20124;-76
2023/04/26 00:51:00;;;;;;;7.40;2.83;;;;;;;;;;5035383;28;20083;-76
2023/04/26 00:53:26;;;;;;;11.93;3.08;;;;;;;;;;5037425;28;20040;-76
2023/04/26 00:55:53;;;;;;;6.47;2.80;;;;;;;;;;5055017;28;20047;-76
2023/04/26 00:58:19;;;;;;;10.60;2.80;;;;;;;;;;5053960;28;20149;-76
2023/04/26 01:00:45;;;;;;;10.00;3.00;;;;;;;;;;5053300;28;20098;-77
2023/04/26 01:03:12;;;;;;;9.13;3.08;;;;;;;;;;5055534;28;20051;-76
2023/04/26 01:05:38;;;;;;;9.43;2.92;;;;;;;;;;5054938;28;20075;-76
2023/04/26 01:08:04;;;;;;;9.88;2.55;;;;;;;;;;5053718;28;20045;-76
2023/04/26 01:10:34;;;;;;;9.45;2.78;;;;;;;;;;5054686;28;20103;-76
2023/04/26 01:13:00;;;;;;;11.60;3.13;;;;;;;;;;5054813;28;20086;-76
2023/04/26 01:15:28;;;;;;;9.55;3.40;;;;;;;;;;5053452;28;20045;-76
2023/04/26 01:17:54;;;;;;;11.70;3.45;;;;;;;;;;5053677;28;20049;-76
2023/04/26 01:20:21;;;;;;;9.40;3.10;;;;;;;;;;5053281;28;20498;-76
2023/04/26 01:22:47;;;;;;;14.30;3.90;;;;;;;;;;5055069;28;20044;-76
2023/04/26 01:25:13;;;;;;;5.93;3.45;;;;;;;;;;5054672;28;20048;-76
2023/04/26 01:27:39;;;;;;;10.88;3.80;;;;;;;;;;5053202;28;20098;-77
2023/04/26 01:30:05;;;;;;;11.23;3.45;;;;;;;;;;5036459;28;20037;-76
2023/04/26 01:32:31;;;;;;;11.35;3.42;;;;;;;;;;5053184;28;20057;-76
2023/04/26 01:34:57;;;;;;;8.95;3.00;;;;;;;;;;5054388;28;20052;-76
2023/04/26 01:37:23;;;;;;;11.65;3.53;;;;;;;;;;5054609;28;20048;-76
2023/04/26 01:39:49;;;;;;;11.73;3.22;;;;;;;;;;5054386;28;20052;-76
2023/04/26 01:42:16;;;;;;;12.20;3.30;;;;;;;;;;5054388;28;20049;-76
2023/04/26 01:44:42;;;;;;;10.52;3.42;;;;;;;;;;5048796;28;20067;-77
2023/04/26 01:47:08;;;;;;;8.35;3.72;;;;;;;;;;5054347;28;20123;-77
2023/04/26 01:49:34;;;;;;;9.27;3.20;;;;;;;;;;5047533;28;20044;-77
2023/04/26 01:52:00;;;;;;;11.18;3.75;;;;;;;;;;5054317;28;20393;-77
2023/04/26 01:54:26;;;;;;;9.95;3.20;;;;;;;;;;5053700;28;20096;-77
2023/04/26 01:56:52;;;;;;;9.50;3.58;;;;;;;;;;5054291;28;20048;-77
2023/04/26 01:59:18;;;;;;;17.30;3.67;;;;;;;;;;5045832;28;20051;-77
2023/04/26 02:01:45;;;;;;;15.52;3.80;;;;;;;;;;5052738;28;20131;-77
2023/04/26 02:04:11;;;;;;;10.13;3.03;;;;;;;;;;5037339;28;20143;-76
2023/04/26 02:06:37;;;;;;;13.93;4.35;;;;;;;;;;5056261;28;20405;-76
2023/04/26 02:09:03;;;;;;;14.32;3.58;;;;;;;;;;5052968;28;20078;-75
2023/04/26 02:11:30;;;;;;;9.75;3.45;;;;;;;;;;5029906;28;20045;-75
2023/04/26 02:13:56;;;;;;;12.60;3.30;;;;;;;;;;5054346;28;20056;-76
2023/04/26 02:16:22;;;;;;;11.32;3.30;;;;;;;;;;5045731;28;20044;-76
2023/04/26 02:18:52;;;;;;;9.18;3.17;;;;;;;;;;5052733;28;20098;-76
2023/04/26 02:21:18;;;;;;;7.30;3.00;;;;;;;;;;5044979;28;20048;-76
2023/04/26 02:23:44;;;;;;;8.30;2.88;;;;;;;;;;5052805;28;20048;-76
2023/04/26 02:26:11;;;;;;;11.07;3.13;;;;;;;;;;5054163;28;20037;-76
2023/04/26 02:28:37;;;;;;;7.10;2.90;;;;;;;;;;5047820;28;20057;-76
2023/04/26 02:31:03;;;;;;;9.48;2.97;;;;;;;;;;5052169;28;20044;-76
2023/04/26 02:33:30;;;;;;;9.77;3.05;;;;;;;;;;5053117;28;20140;-76
2023/04/26 02:35:56;;;;;;;8.30;2.65;;;;;;;;;;5052708;28;20048;-76
2023/04/26 02:38:22;;;;;;;10.07;3.10;;;;;;;;;;5018651;28;20041;-76
2023/04/26 02:40:48;;;;;;;9.30;3.05;;;;;;;;;;5053214;28;20040;-76
2023/04/26 02:43:14;;;;;;;7.97;2.90;;;;;;;;;;5053511;28;20049;-76
2023/04/26 02:45:41;;;;;;;9.95;3.45;;;;;;;;;;5053031;28;20124;-76
2023/04/26 02:48:07;;;;;;;10.13;3.22;;;;;;;;;;5051617;28;20464;-76
2023/04/26 02:50:33;;;;;;;13.05;3.33;;;;;;;;;;5035166;28;20082;-76
2023/04/26 02:52:59;;;;;;;13.00;3.00;;;;;;;;;;5053390;28;20045;-77
2023/04/26 02:55:25;;;;;;;11.50;3.25;;;;;;;;;;5033323;28;20155;-76
2023/04/26 02:57:51;;;;;;;8.65;3.45;;;;;;;;;;5015561;28;20137;-76
2023/04/26 03:00:17;;;;;;;8.00;2.85;;;;;;;;;;5032824;28;20118;-76
2023/04/26 03:02:43;;;;;;;10.57;3.13;;;;;;;;;;5033053;28;20059;-76
2023/04/26 03:05:10;;;;;;;9.27;3.08;;;;;;;;;;5015425;28;20351;-76
2023/04/26 03:07:36;;;;;;;11.70;3.00;;;;;;;;;;5015470;28;20049;-76
2023/04/26 03:10:03;;;;;;;7.88;3.20;;;;;;;;;;5015428;28;20445;-76
2023/04/26 03:12:29;;;;;;;6.93;2.88;;;;;;;;;;5033001;28;20244;-76
2023/04/26 03:14:56;;;;;;;11.52;3.10;;;;;;;;;;5015152;28;20086;-76
2023/04/26 03:17:22;;;;;;;11.75;3.40;;;;;;;;;;5032993;28;20049;-76
2023/04/26 03:19:48;;;;;;;9.65;2.80;;;;;;;;;;5033059;28;20107;-76
2023/04/26 03:22:15;;;;;;;11.05;2.90;;;;;;;;;;5033019;28;20367;-76
2023/04/26 03:24:45;;;;;;;11.35;3.10;;;;;;;;;;5032705;28;20052;-76
2023/04/26 03:27:11;;;;;;;8.27;2.80;;;;;;;;;;5014881;28;20061;-76
2023/04/26 03:29:37;;;;;;;9.18;3.00;;;;;;;;;;5015252;28;20046;-76
2023/04/26 03:32:04;;;;;;;6.63;2.65;;;;;;;;;;5032483;28;20486;-76
2023/04/26 03:34:30;;;;;;;10.15;3.10;;;;;;;;;;5015306;28;20124;-76
2023/04/26 03:36:56;;;;;;;8.75;3.00;;;;;;;;;;5032793;28;20049;-76
2023/04/26 03:39:22;;;;;;;10.32;3.00;;;;;;;;;;5015390;28;20053;-76
2023/04/26 03:41:48;;;;;;;6.97;2.90;;;;;;;;;;5031534;28;20042;-76
2023/04/26 03:44:14;;;;;;;8.05;2.70;;;;;;;;;;5032572;28;20124;-76
2023/04/26 03:46:40;;;;;;;7.65;2.80;;;;;;;;;;5032550;28;20447;-76
2023/04/26 03:49:06;;;;;;;7.88;2.92;;;;;;;;;;5032887;28;20539;-76
2023/04/26 03:51:33;;;;;;;6.57;2.60;;;;;;;;;;5036395;28;20085;-76
2023/04/26 03:53:59;;;;;;;7.03;2.45;;;;;;;;;;5018470;28;20473;-77
2023/04/26 03:56:25;;;;;;;7.82;2.70;;;;;;;;;;5036460;28;20042;-76
2023/04/26 03:58:52;;;;;;;6.78;2.75;;;;;;;;;;5036311;28;20417;-77
2023/04/26 04:01:19;;;;;;;8.68;2.90;;;;;;;;;;5035836;28;20183;-76
2023/04/26 04:03:45;;;;;;;6.22;2.60;;;;;;;;;;5036372;28;20107;-76
2023/04/26 04:06:11;;;;;;;7.32;2.90;;;;;;;;;;5036295;28;20426;-76
2023/04/26 04:08:37;;;;;;;8.50;2.80;;;;;;;;;;5036174;28;20131;-76
2023/04/26 04:11:03;;;;;;;7.82;2.80;;;;;;;;;;5017890;28;20045;-76
2023/04/26 04:13:30;;;;;;;5.68;2.80;;;;;;;;;;5018390;28;20491;-76
2023/04/26 04:15:56;;;;;;;9.48;2.50;;;;;;;;;;5035907;28;20045;-76
2023/04/26 04:18:22;;;;;;;5.38;2.50;;;;;;;;;;5036242;28;20049;-76
2023/04/26 04:20:48;;;;;;;5.35;2.22;;;;;;;;;;5018188;28;20042;-76
2023/04/26 04:23:14;;;;;;;8.65;2.55;;;;;;;;;;5018302;28;20060;-76
2023/04/26 04:25:40;;;;;;;7.40;2.47;;;;;;;;;;5017841;28;20042;-76
2023/04/26 04:28:07;;;;;;;10.50;3.05;;;;;;;;;;5035915;28;20102;-76
2023/04/26 04:30:33;;;;;;;6.20;2.47;;;;;;;;;;5017671;28;20071;-76
2023/04/26 04:32:59;;;;;;;8.57;2.78;;;;;;;;;;5000089;28;20061;-76
2023/04/26 04:35:27;;;;;;;8.32;2.72;;;;;;;;;;5017881;28;20147;-76
2023/04/26 04:37:57;;;;;;;7.38;2.50;;;;;;;;;;5017687;28;20056;-76
2023/04/26 04:40:24;;;;;;;6.32;2.75;;;;;;;;;;5034454;28;20493;-76
2023/04/26 04:42:50;;;;;;;6.45;2.70;;;;;;;;;;5037321;28;20057;-75
2023/04/26 04:45:16;;;;;;;12.23;3.10;;;;;;;;;;5019909;28;20122;-76
2023/04/26 04:47:44;;;;;;;7.47;2.97;;;;;;;;;;5035774;28;20034;-76
2023/04/26 04:50:10;;;;;;;8.02;2.83;;;;;;;;;;5034688;28;20410;-76
2023/04/26 04:52:36;;;;;;;8.13;2.90;;;;;;;;;;5018095;28;20080;-76
2023/04/26 04:55:03;;;;;;;9.43;2.80;;;;;;;;;;5035202;28;20152;-76
2023/04/26 04:57:32;;;;;;;9.02;3.45;;;;;;;;;;5032455;28;20049;-76
2023/04/26 05:00:06;;;;;;;6.75;2.75;;;;;;;;;;5034839;28;20037;-75
2023/04/26 05:02:32;;;;;;;8.88;3.17;;;;;;;;;;5016869;28;20152;-76
2023/04/26 05:04:58;;;;;;;6.45;3.17;;;;;;;;;;5035120;28;20037;-76
2023/04/26 05:07:24;;;;;;;7.70;2.85;;;;;;;;;;5035231;28;20037;-76
2023/04/26 05:09:50;;;;;;;11.00;3.05;;;;;;;;;;5017233;28;20053;-76
2023/04/26 05:12:16;;;;;;;6.18;2.88;;;;;;;;;;5033448;28;20037;-75
2023/04/26 05:14:42;;;;;;;7.97;2.90;;;;;;;;;;5032697;28;20052;-76
2023/04/26 05:17:08;;;;;;;10.48;3.10;;;;;;;;;;5017527;28;20045;-76
2023/04/26 05:19:34;;;;;;;9.38;3.22;;;;;;;;;;5035089;28;20157;-76
2023/04/26 05:22:00;;;;;;;7.45;3.30;;;;;;;;;;5022076;28;20199;-76
2023/04/26 05:24:30;;;;;;;11.10;2.80;;;;;;;;;;5035669;28;20063;-76
2023/04/26 05:26:57;;;;;;;7.90;2.90;;;;;;;;;;5052865;28;20516;-76
2023/04/26 05:29:23;;;;;;;7.80;2.92;;;;;;;;;;5019930;28;20099;-77
2023/04/26 05:31:49;;;;;;;9.45;2.85;;;;;;;;;;5035553;28;20485;-76
2023/04/26 05:34:15;;;;;;;9.75;3.00;;;;;;;;;;5034693;28;20088;-76
2023/04/26 05:36:41;;;;;;;7.50;2.95;;;;;;;;;;5034631;28;20088;-77
2023/04/26 05:39:07;;;;;;;9.00;2.80;;;;;;;;;;5034640;28;20072;-76
2023/04/26 05:41:33;;;;;;;7.80;3.30;;;;;;;;;;5034163;28;20107;-76
2023/04/26 05:44:00;;;;;;;10.70;3.35;;;;;;;;;;5034459;28;20477;-77
2023/04/26 05:46:26;;;;;;;6.55;2.78;;;;;;;;;;5034196;28;20041;-77
2023/04/26 05:48:52;;;;;;;9.77;3.45;;;;;;;;;;5034176;28;20410;-77
2023/04/26 05:51:18;;;;;;;7.63;3.22;;;;;;;;;;5034249;28;20041;-77
2023/04/26 05:53:44;;;;;;;7.50;3.38;;;;;;;;;;5033851;28;20045;-77
2023/04/26 05:56:10;;;;;;;7.38;3.35;;;;;;;;;;5034280;28;20482;-76
2023/04/26 05:58:36;;;;;;;7.78;3.28;;;;;;;;;;5016455;28;20050;-77
2023/04/26 06:01:02;;;;;;;7.88;3.17;;;;;;;;;;5033188;28;20044;-76
2023/04/26 06:03:28;;;;;;;11.48;2.92;;;;;;;;;;5015895;28;20056;-76
2023/04/26 06:05:54;;;;;;;11.95;3.42;;;;;;;;;;5033505;28;20475;-76
2023/04/26 06:08:20;;;;;;;8.43;3.22;;;;;;;;;;5034245;28;20433;-76
2023/04/26 06:10:46;;;;;;;7.43;2.90;;;;;;;;;;4999315;28;20057;-76
2023/04/26 06:13:12;;;;;;;7.95;3.10;;;;;;;;;;5032834;28;20457;-77
2023/04/26 06:15:38;;;;;;;9.45;3.05;;;;;;;;;;5015563;28;20050;-76
2023/04/26 06:18:05;;;;;;;5.97;3.28;;;;;;;;;;5015852;28;20079;-76
2023/04/26 06:20:31;;;;;;;6.88;2.85;;;;;;;;;;5033518;28;20056;-75
2023/04/26 06:22:57;;;;;;;6.45;2.55;;;;;;;;;;5015501;28;20132;-76
2023/04/26 06:25:23;;;;;;;12.82;3.10;;;;;;;;;;5015335;28;20041;-76
2023/04/26 06:27:49;;;;;;;6.88;2.72;;;;;;;;;;4999409;28;20049;-76
2023/04/26 06:30:16;;;;;;;7.90;2.88;;;;;;;;;;5015087;28;20041;-77
2023/04/26 06:32:42;;;;;;;8.95;2.95;;;;;;;;;;5040661;28;20485;-76
2023/04/26 06:35:08;;;;;;;8.20;3.33;;;;;;;;;;5053056;28;20048;-76
2023/04/26 06:37:34;;;;;;;6.03;2.55;;;;;;;;;;5035641;28;20079;-76
2023/04/26 06:40:01;;;;;;;5.50;2.60;;;;;;;;;;5035112;28;20041;-76
2023/04/26 06:42:27;;;;;;;6.47;2.80;;;;;;;;;;5052740;28;20047;-76
2023/04/26 06:44:53;;;;;;;10.02;2.65;;;;;;;;;;5052803;28;20045;-76
2023/04/26 06:47:19;;;;;;;8.48;2.88;;;;;;;;;;5034943;28;20055;-76
2023/04/26 06:49:45;;;;;;;8.75;2.90;;;;;;;;;;5052603;28;20179;-76
2023/04/26 06:52:11;;;;;;;6.60;2.90;;;;;;;;;;5052674;28;20112;-76
2023/04/26 06:54:37;;;;;;;7.32;2.60;;;;;;;;;;5039364;28;20124;-76
2023/04/26 06:57:03;;;;;;;11.68;2.80;;;;;;;;;;5033099;28;20129;-76
2023/04/26 06:59:29;;;;;;;7.28;2.55;;;;;;;;;;5032730;28;20053;-76
2023/04/26 07:01:55;;;;;;;7.18;2.58;;;;;;;;;;5031106;28;20033;-76
2023/04/26 07:04:21;;;;;;;7.70;2.55;;;;;;;;;;5032994;28;20107;-77
2023/04/26 07:06:47;;;;;;;8.35;2.60;;;;;;;;;;5015034;28;20055;-76
2023/04/26 07:09:13;;;;;;;9.00;2.55;;;;;;;;;;5032508;28;20183;-77
2023/04/26 07:11:39;;;;;;;7.32;2.63;;;;;;;;;;5032456;28;20041;-77
2023/04/26 07:14:06;;;;;;;6.20;2.35;;;;;;;;;;5015074;28;20053;-75
2023/04/26 07:16:32;;;;;;;7.40;2.80;;;;;;;;;;5032667;28;20068;-75
2023/04/26 07:18:58;;;;;;;8.85;2.80;;;;;;;;;;4998431;28;20046;-75
2023/04/26 07:21:25;;;;;;;7.93;2.40;;;;;;;;;;5033542;28;20121;-75
2023/04/26 07:23:55;;;;;;;5.60;2.45;;;;;;;;;;5032804;28;20536;-76
2023/04/26 07:26:22;;;;;;;9.70;2.83;;;;;;;;;;5003132;28;20045;-75
2023/04/26 07:28:51;;;;;;;7.68;2.70;;;;;;;;;;5002905;28;20080;-76
2023/04/26 07:31:17;;;;;;;9.40;3.17;;;;;;;;;;5018615;28;20053;-76
2023/04/26 07:33:43;;;;;;;8.32;2.80;;;;;;;;;;5031043;28;20079;-76
2023/04/26 07:36:09;;;;;;;6.30;2.67;;;;;;;;;;5035019;28;20045;-77
2023/04/26 07:38:35;;;;;;;12.02;3.15;;;;;;;;;;5036414;28;20046;-77
2023/04/26 07:41:01;;;;;;;6.47;2.63;;;;;;;;;;5035040;28;20045;-77
2023/04/26 07:43:27;;;;;;;6.38;2.70;;;;;;;;;;5036245;28;20521;-75
2023/04/26 07:45:53;;;;;;;7.50;2.90;;;;;;;;;;5036043;28;20420;-76
2023/04/26 07:48:19;;;;;;;9.48;2.85;;;;;;;;;;5035631;28;20053;-76
2023/04/26 07:50:45;;;;;;;9.75;2.90;;;;;;;;;;5034740;28;20092;-76
2023/04/26 07:53:11;;;;;;;9.77;3.25;;;;;;;;;;5036036;28;20053;-77
2023/04/26 07:55:37;;;;;;;10.55;2.60;;;;;;;;;;5035843;28;20455;-77
2023/04/26 07:58:04;;;;;;;10.85;3.00;;;;;;;;;;5035991;28;20359;-77
2023/04/26 08:00:30;;;;;;;10.32;2.58;;;;;;;;;;5050856;28;20413;-77
2023/04/26 08:02:56;;;;;;;9.85;2.75;;;;;;;;;;5055697;28;20037;-76
2023/04/26 08:05:22;;;;;;;7.15;2.80;;;;;;;;;;5055366;28;20045;-77
2023/04/26 08:07:48;;;;;;;8.80;2.80;;;;;;;;;;5055956;28;20379;-76
2023/04/26 08:10:14;;;;;;;7.35;2.60;;;;;;;;;;5055613;28;20055;-76
2023/04/26 08:12:40;;;;;;;7.95;2.53;;;;;;;;;;5052789;28;20452;-76
2023/04/26 08:15:07;;;;;;;7.85;2.70;;;;;;;;;;5051623;28;20620;-79
2023/04/26 08:17:33;;;;;;;9.73;2.42;;;;;;;;;;5055408;28;20049;-80
2023/04/26 08:19:59;;;;;;;8.18;3.08;;;;;;;;;;5055474;28;20112;-77
2023/04/26 08:22:26;;;;;;;11.25;2.67;;;;;;;;;;5055335;28;20049;-78
2023/04/26 08:24:54;;;;;;;7.90;2.53;;;;;;;;;;5053951;28;20099;-78
2023/04/26 08:27:21;;;;;;;9.05;2.70;;;;;;;;;;5055103;28;20490;-77
2023/04/26 08:29:47;;;;;;;9.55;3.00;;;;;;;;;;5055191;28;20056;-78
2023/04/26 08:32:13;;;;;;;10.82;2.67;;;;;;;;;;5054785;28;20052;-77
2023/04/26 08:34:39;;;;;;;5.55;2.40;;;;;;;;;;5054963;28;20413;-78
2023/04/26 08:37:08;;;;;;;11.32;3.05;;;;;;;;;;5053906;28;20059;-77
2023/04/26 08:39:34;;;;;;;8.50;3.03;;;;;;;;;;5054381;28;20555;-77
2023/04/26 08:42:05;;;;;;;9.10;2.72;;;;;;;;;;5054952;28;20044;-76
2023/04/26 08:44:34;;;;;;;9.43;2.55;;;;;;;;;;5053405;28;20048;-77
2023/04/26 08:47:06;;;;;;;6.68;2.42;;;;;;;;;;5037025;28;20053;-80
2023/04/26 08:49:43;;;;;;;9.80;2.50;;;;;;;;;;5036537;28;20110;-78
2023/04/26 08:52:10;;;;;;;12.75;2.72;;;;;;;;;;5054941;28;20080;-77
2023/04/26 08:54:37;;;;;;;5.78;2.47;;;;;;;;;;5036264;28;20087;-78
2023/04/26 08:57:03;;;;;;;9.48;2.90;;;;;;;;;;5036114;28;20342;-78
2023/04/26 08:59:30;;;;;;;9.20;2.45;;;;;;;;;;5035236;28;20041;-78
2023/04/26 09:01:57;;;;;;;10.05;2.60;;;;;;;;;;5053169;28;20047;-77
2023/04/26 09:04:23;;;;;;;7.03;2.22;;;;;;;;;;5034941;28;20103;-77
2023/04/26 09:06:49;;;;;;;6.95;2.03;;;;;;;;;;5052825;28;20448;-77
2023/04/26 09:09:18;;;;;;;7.60;2.22;;;;;;;;;;5052371;28;20124;-77
2023/04/26 09:11:52;;;;;;;11.15;2.50;;;;;;;;;;5034372;28;20041;-77
2023/04/26 09:14:19;;;;;;;11.73;2.83;;;;;;;;;;5034593;28;20045;-77
2023/04/26 09:16:45;;;;;;;8.93;2.45;;;;;;;;;;5035381;28;20451;-77
2023/04/26 09:19:11;;;;;;;5.20;2.50;;;;;;;;;;5035879;28;20056;-77
2023/04/26 09:21:43;;;;;;;10.23;2.70;;;;;;;;;;5036134;28;20052;-77
2023/04/26 09:24:09;;;;;;;7.97;2.67;;;;;;;;;;5036259;28;20041;-77
2023/04/26 09:26:35;;;;;;;11.48;3.38;;;;;;;;;;5052896;28;20398;-77
2023/04/26 09:29:12;;;;;;;6.82;2.92;;;;;;;;;;5053870;28;20052;-77
2023/04/26 09:31:39;;;;;;;10.30;2.95;;;;;;;;;;5053969;28;20056;-77
2023/04/26 09:34:05;;;;;;;13.45;3.10;;;;;;;;;;5053831;28;20049;-78
2023/04/26 09:36:32;;;;;;;7.63;2.65;;;;;;;;;;5053889;28;20048;-79
2023/04/26 09:38:58;;;;;;;7.72;2.60;;;;;;;;;;5052577;28;20041;-80
2023/04/26 09:41:24;;;;;;;7.85;2.88;;;;;;;;;;5053570;28;20045;-80
2023/04/26 09:43:51;;;;;;;12.30;3.03;;;;;;;;;;5053738;28;20049;-78
2023/04/26 09:46:23;;;;;;;8.60;3.15;;;;;;;;;;5053576;28;20045;-77
2023/04/26 09:49:01;;;;;;;10.10;3.17;;;;;;;;;;5053525;28;20051;-76
2023/04/26 09:51:27;;;;;;;9.48;3.22;;;;;;;;;;5053957;28;20362;-77
2023/04/26 09:53:53;;;;;;;7.82;3.03;;;;;;;;;;5035589;28;20037;-79
2023/04/26 09:56:20;;;;;;;10.13;3.17;;;;;;;;;;5034116;28;20083;-77
2023/04/26 09:58:46;;;;;;;8.88;3.08;;;;;;;;;;5034309;28;20486;-77
2023/04/26 10:01:19;;;;;;;14.55;3.33;;;;;;;;;;5020527;28;20114;-77
2023/04/26 10:03:45;;;;;;;9.18;3.13;;;;;;;;;;5056427;28;20045;-77
2023/04/26 10:06:12;;;;;;;7.28;2.13;;;;;;;;;;5035970;28;20041;-76
2023/04/26 10:08:38;;;;;;;8.63;2.13;;;;;;;;;;5035840;28;20354;-77
2023/04/26 10:11:06;;;;;;;5.65;1.88;;;;;;;;;;5051713;28;20473;-77
2023/04/26 10:13:32;;;;;;;9.23;2.00;;;;;;;;;;5018819;28;20060;-77
2023/04/26 10:16:01;;;;;;;7.10;2.30;;;;;;;;;;5052986;28;20045;-77
2023/04/26 10:18:28;;;;;;;6.15;2.08;;;;;;;;;;5053162;28;20041;-77
2023/04/26 10:20:57;;;;;;;8.90;2.25;;;;;;;;;;5052825;28;20406;-77
2023/04/26 10:23:24;;;;;;;10.15;3.10;;;;;;;;;;5033281;28;20198;-78
2023/04/26 10:25:51;;;;;;;8.18;2.83;;;;;;;;;;5032024;28;20505;-77
2023/04/26 10:28:18;;;;;;;7.38;2.92;;;;;;;;;;5031949;28;20053;-77
2023/04/26 10:30:54;;;;;;;7.60;2.50;;;;;;;;;;5031080;28;20854;-78
2023/04/26 10:33:20;;;;;;;7.88;2.55;;;;;;;;;;5049912;28;20057;-77
2023/04/26 10:36:03;;;;;;;13.55;2.45;;;;;;;;;;5033152;28;20099;-78
2023/04/26 10:38:30;;;;;;;5.65;2.10;;;;;;;;;;5052506;28;20049;-78
2023/04/26 10:40:56;;;;;;;5.15;1.90;;;;;;;;;;5034295;28;20041;-78
2023/04/26 10:43:28;;;;;;;7.22;2.20;;;;;;;;;;5035065;28;20136;-79
2023/04/26 10:45:55;;;;;;;11.20;2.10;;;;;;;;;;5034500;28;20044;-78
2023/04/26 10:48:27;;;;;;;9.30;2.22;;;;;;;;;;5034916;28;20041;-77
2023/04/26 10:51:07;;;;;;;6.55;2.50;;;;;;;;;;5018380;28;20040;-78
2023/04/26 10:53:45;;;;;;;8.60;2.00;;;;;;;;;;5048454;28;20049;-76
2023/04/26 10:56:32;;;;;;;7.47;2.45;;;;;;;;;;4987281;28;20129;-77
2023/04/26 10:59:11;;;;;;;7.43;2.03;;;;;;;;;;5011085;28;20139;-77
2023/04/26 11:01:37;;;;;;;6.63;1.90;;;;;;;;;;5031204;28;20055;-77
2023/04/26 11:04:08;;;;;;;3.47;1.63;;;;;;;;;;5052442;28;20507;-77
2023/04/26 11:06:50;;;;;;;3.75;1.60;;;;;;;;;;5052548;28;20044;-77
2023/04/26 11:09:35;;;;;;;5.05;2.05;;;;;;;;;;5052343;28;20132;-77
2023/04/26 11:12:07;;;;;;;6.35;1.70;;;;;;;;;;5052653;28;20048;-77
2023/04/26 11:14:34;;;;;;;8.73;2.45;;;;;;;;;;5052573;28;20076;-77
2023/04/26 11:17:07;;;;;;;8.35;1.95;;;;;;;;;;5052266;28;20041;-77
2023/04/26 11:19:33;;;;;;;4.55;1.75;;;;;;;;;;5034576;28;20037;-78
2023/04/26 11:21:59;;;;;;;6.03;1.70;;;;;;;;;;5052584;28;20370;-78
2023/04/26 11:24:26;;;;;;;6.88;2.08;;;;;;;;;;5052642;28;20103;-78
2023/04/26 11:26:52;;;;;;;6.93;1.80;;;;;;;;;;5052388;28;20049;-78
2023/04/26 11:29:19;;;;;;;9.25;2.20;;;;;;;;;;5034417;28;20534;-78
2023/04/26 11:31:52;;;;;;;7.68;1.95;;;;;;;;;;5017664;28;20052;-78
2023/04/26 11:34:21;;;;;;;4.55;2.13;;;;;;;;;;5052608;28;20122;-78
2023/04/26 11:36:47;;;;;;;4.93;2.13;;;;;;;;;;5018588;28;20045;-79
2023/04/26 11:39:13;;;;;;;5.70;2.05;;;;;;;;;;5052083;28;20049;-78
2023/04/26 11:41:39;;;;;;;4.13;1.90;;;;;;;;;;5052403;28;20114;-79
2023/04/26 11:44:06;;;;;;;7.25;2.00;;;;;;;;;;5034040;28;20456;-78
2023/04/26 11:46:32;;;;;;;11.35;2.38;;;;;;;;;;5050729;28;20041;-77
2023/04/26 11:48:58;;;;;;;5.25;1.90;;;;;;;;;;5034083;28;20095;-77
2023/04/26 11:51:24;;;;;;;3.33;1.70;;;;;;;;;;5034462;28;20041;-77
2023/04/26 11:53:50;;;;;;;6.07;1.80;;;;;;;;;;5045318;28;20437;-78
2023/04/26 11:56:17;;;;;;;4.75;2.00;;;;;;;;;;5032454;28;20049;-78
2023/04/26 11:58:46;;;;;;;5.47;1.77;;;;;;;;;;5032382;28;20049;-78
2023/04/26 12:01:12;;;;;;;4.03;1.80;;;;;;;;;;5014170;28;20041;-79
2023/04/26 12:03:38;;;;;;;3.78;1.50;;;;;;;;;;5032088;28;20053;-81
2023/04/26 12:06:05;;;;;;;5.82;1.58;;;;;;;;;;5032001;28;20486;-80
2023/04/26 12:08:32;;;;;;;4.13;1.80;;;;;;;;;;5032012;28;20092;-80
2023/04/26 12:11:01;;;;;;;4.60;1.80;;;;;;;;;;5033929;28;20095;-80
2023/04/26 12:13:28;;;;;;;4.38;1.55;;;;;;;;;;5017900;28;20045;-80
2023/04/26 12:15:54;;;;;;;3.72;1.60;;;;;;;;;;5034662;28;20051;-80
2023/04/26 12:18:22;;;;;;;5.30;1.75;;;;;;;;;;5036059;28;20096;-80
2023/04/26 12:20:48;;;;;;;8.73;1.75;;;;;;;;;;5018100;28;20113;-79
2023/04/26 12:23:17;;;;;;;5.47;1.80;;;;;;;;;;5016790;28;20096;-80
2023/04/26 12:26:00;;;;;;;3.72;1.50;;;;;;;;;;5018038;28;20099;-80
2023/04/26 12:28:27;;;;;;;5.43;1.98;;;;;;;;;;5001730;28;20397;-79
2023/04/26 12:30:53;;;;;;;8.05;2.15;;;;;;;;;;5001425;28;20080;-80
2023/04/26 12:33:21;;;;;;;6.38;1.80;;;;;;;;;;5017767;28;20064;-79
2023/04/26 12:35:48;;;;;;;5.70;1.85;;;;;;;;;;5017446;28;20086;-79
2023/04/26 12:38:14;;;;;;;9.18;2.10;;;;;;;;;;5017872;28;20397;-80
2023/04/26 12:40:41;;;;;;;6.63;1.90;;;;;;;;;;5017440;28;20046;-79
2023/04/26 12:43:07;;;;;;;5.13;1.90;;;;;;;;;;5035096;28;20049;-79
2023/04/26 12:45:33;;;;;;;6.97;1.90;;;;;;;;;;5017314;28;20077;-79
2023/04/26 12:48:00;;;;;;;8.05;2.30;;;;;;;;;;5034761;28;20210;-80
2023/04/26 12:50:26;;;;;;;5.47;1.80;;;;;;;;;;5018497;28;20042;-80
2023/04/26 12:52:52;;;;;;;7.68;2.03;;;;;;;;;;5026005;28;20045;-80
2023/04/26 12:55:19;;;;;;;5.82;2.03;;;;;;;;;;5027582;28;20586;-79
2023/04/26 12:57:45;;;;;;;7.03;1.95;;;;;;;;;;5018030;28;20163;-77
2023/04/26 13:00:15;;;;;;;6.93;1.95;;;;;;;;;;5027071;28;20053;-77
2023/04/26 13:02:42;;;;;;;6.60;2.28;;;;;;;;;;5037962;28;20072;-76
2023/04/26 13:05:08;;;;;;;5.65;1.90;;;;;;;;;;5037144;28;20041;-77
2023/04/26 13:07:35;;;;;;;7.45;1.90;;;;;;;;;;5034977;28;20053;-77
2023/04/26 13:10:01;;;;;;;4.57;2.03;;;;;;;;;;5017137;28;20049;-78
2023/04/26 13:12:28;;;;;;;5.13;2.05;;;;;;;;;;5017005;28;20037;-77
2023/04/26 13:14:54;;;;;;;4.75;2.10;;;;;;;;;;5016571;28;20050;-77
2023/04/26 13:17:21;;;;;;;8.43;2.03;;;;;;;;;;5017021;28;20152;-77
2023/04/26 13:19:47;;;;;;;5.25;1.88;;;;;;;;;;5034437;28;20494;-78
2023/04/26 13:22:15;;;;;;;5.88;2.10;;;;;;;;;;5016253;28;20115;-75
2023/04/26 13:24:41;;;;;;;5.97;2.03;;;;;;;;;;5034726;28;20052;-76
2023/04/26 13:27:07;;;;;;;4.72;1.70;;;;;;;;;;5034311;28;20041;-76
2023/04/26 13:29:34;;;;;;;8.38;2.25;;;;;;;;;;5032207;28;20053;-76
2023/04/26 13:32:00;;;;;;;7.07;1.90;;;;;;;;;;5032344;28;20060;-76
2023/04/26 13:34:26;;;;;;;5.43;1.90;;;;;;;;;;5034049;28;20098;-77
2023/04/26 13:36:52;;;;;;;6.53;2.00;;;;;;;;;;5032823;28;20131;-77
2023/04/26 13:39:18;;;;;;;6.00;2.00;;;;;;;;;;5016785;28;20598;-77
2023/04/26 13:41:44;;;;;;;5.57;2.10;;;;;;;;;;5033886;28;20128;-77
2023/04/26 13:44:13;;;;;;;7.43;1.90;;;;;;;;;;5008378;28;20060;-76
2023/04/26 13:46:39;;;;;;;5.95;2.70;;;;;;;;;;4999804;28;20085;-76
2023/04/26 13:49:05;;;;;;;9.63;2.08;;;;;;;;;;5016170;28;20103;-78
2023/04/26 13:51:33;;;;;;;5.05;2.15;;;;;;;;;;5015924;28;20045;-79
2023/04/26 13:53:59;;;;;;;5.75;2.00;;;;;;;;;;5023750;28;20049;-79
2023/04/26 13:56:25;;;;;;;5.93;2.20;;;;;;;;;;5019687;28;20083;-79
2023/04/26 13:58:55;;;;;;;4.45;1.90;;;;;;;;;;5053458;28;20087;-80
2023/04/26 14:01:21;;;;;;;9.77;2.28;;;;;;;;;;5019565;28;20045;-80
2023/04/26 14:03:47;;;;;;;4.63;1.70;;;;;;;;;;5053871;28;20460;-80
2023/04/26 14:06:13;;;;;;;4.65;2.05;;;;;;;;;;5054013;28;20045;-79
2023/04/26 14:08:39;;;;;;;4.32;2.17;;;;;;;;;;5036007;28;20570;-80
2023/04/26 14:11:06;;;;;;;8.10;2.35;;;;;;;;;;5035708;28;20410;-81
2023/04/26 14:13:32;;;;;;;5.97;2.20;;;;;;;;;;5053714;28;20053;-80
2023/04/26 14:15:59;;;;;;;5.70;2.15;;;;;;;;;;5035372;28;20040;-77
2023/04/26 14:18:25;;;;;;;5.10;1.92;;;;;;;;;;5035138;28;20437;-78
2023/04/26 14:20:51;;;;;;;6.95;1.98;;;;;;;;;;5053121;28;20099;-78
2023/04/26 14:23:17;;;;;;;6.20;2.00;;;;;;;;;;5035341;28;20080;-77
2023/04/26 14:25:43;;;;;;;9.13;2.33;;;;;;;;;;5035231;28;20124;-78
2023/04/26 14:28:10;;;;;;;5.78;2.45;;;;;;;;;;5034778;28;20053;-77
2023/04/26 14:30:36;;;;;;;6.25;2.08;;;;;;;;;;5051638;28;20046;-75
2023/04/26 14:33:02;;;;;;;7.95;2.47;;;;;;;;;;5052404;28;20523;-79
2023/04/26 14:35:28;;;;;;;8.30;2.25;;;;;;;;;;5050870;28;20128;-79
2023/04/26 14:37:54;;;;;;;8.18;2.42;;;;;;;;;;5033679;28;20397;-80
2023/04/26 14:40:20;;;;;;;8.15;2.35;;;;;;;;;;5032756;28;20056;-79